createdAt,value
2017-09-21T00:00:09.445Z,1.63
2017-09-21T00:02:40.378Z,2.00
2017-09-21T00:05:11.711Z,2.53
2017-09-21T00:07:42.706Z,1.90
2017-09-21T00:10:13.628Z,2.20
2017-09-21T00:12:44.546Z,2.30
2017-09-21T00:15:15.504Z,2.37
2017-09-21T00:17:46.825Z,2.40
2017-09-21T00:20:17.760Z,3.20
2017-09-21T00:22:49.192Z,3.57
2017-09-21T00:25:20.114Z,3.17
2017-09-21T00:27:51.811Z,3.53
2017-09-21T00:30:22.743Z,3.27
2017-09-21T00:32:53.654Z,3.13
2017-09-21T00:35:25.631Z,4.43
2017-09-21T00:37:56.569Z,2.90
2017-09-21T00:40:27.505Z,5.00
2017-09-21T00:42:58.449Z,4.17
2017-09-21T00:45:29.396Z,3.57
2017-09-21T00:48:00.725Z,4.30
2017-09-21T00:50:31.651Z,4.60
2017-09-21T00:53:03.557Z,3.93
2017-09-21T00:55:34.507Z,3.70
2017-09-21T00:58:05.428Z,3.57
2017-09-21T01:00:36.347Z,3.30
2017-09-21T01:03:07.291Z,4.60
2017-09-21T01:05:38.645Z,4.03
2017-09-21T01:08:09.573Z,5.10
2017-09-21T01:10:40.511Z,4.23
2017-09-21T01:13:11.450Z,5.40
2017-09-21T01:15:42.383Z,4.90
2017-09-21T01:18:13.723Z,5.10
2017-09-21T01:20:46.178Z,4.90
2017-09-21T01:23:17.888Z,5.17
2017-09-21T01:25:48.836Z,6.03
2017-09-21T01:28:19.751Z,5.20
2017-09-21T01:30:50.812Z,5.90
2017-09-21T01:33:22.579Z,4.73
2017-09-21T01:35:54.079Z,5.73
2017-09-21T01:38:25.795Z,5.47
2017-09-21T01:40:56.806Z,5.13
2017-09-21T01:43:27.777Z,5.57
2017-09-21T01:45:58.718Z,5.57
2017-09-21T01:48:36.342Z,5.40
2017-09-21T01:51:08.322Z,5.60
2017-09-21T01:53:39.559Z,6.00
2017-09-21T01:56:11.536Z,4.73
2017-09-21T01:58:42.628Z,5.90
2017-09-21T02:01:13.939Z,5.97
2017-09-21T02:03:44.858Z,5.10
2017-09-21T02:06:15.950Z,5.53
2017-09-21T02:08:46.881Z,6.33
2017-09-21T02:11:17.815Z,6.30
2017-09-21T02:13:48.762Z,6.40
2017-09-21T02:16:19.712Z,7.20
2017-09-21T02:18:50.855Z,7.20
2017-09-21T02:21:21.787Z,6.10
2017-09-21T02:23:52.720Z,7.40
2017-09-21T02:26:23.691Z,6.03
2017-09-21T02:28:55.400Z,6.90
2017-09-21T02:31:26.748Z,6.77
2017-09-21T02:33:57.691Z,7.10
2017-09-21T02:36:28.991Z,6.53
2017-09-21T02:39:00.699Z,7.57
2017-09-21T02:41:31.633Z,6.83
2017-09-21T02:44:02.775Z,6.73
2017-09-21T02:46:33.697Z,7.33
2017-09-21T02:49:05.245Z,8.20
2017-09-21T02:51:36.211Z,8.60
2017-09-21T02:54:07.156Z,8.93
2017-09-21T02:56:38.070Z,7.47
2017-09-21T02:59:09.021Z,8.10
2017-09-21T03:01:40.495Z,7.77
2017-09-21T03:04:11.430Z,8.50
2017-09-21T03:06:42.826Z,7.40
2017-09-21T03:09:13.773Z,8.77
2017-09-21T03:11:44.702Z,7.70
2017-09-21T03:14:15.629Z,5.83
2017-09-21T03:16:47.305Z,6.07
2017-09-21T03:19:18.522Z,6.30
2017-09-21T03:21:50.225Z,8.80
2017-09-21T03:24:21.142Z,7.87
2017-09-21T03:26:53.239Z,7.40
2017-09-21T03:29:24.126Z,7.67
2017-09-21T03:31:56.802Z,9.23
2017-09-21T03:34:28.468Z,8.33
2017-09-21T03:37:00.393Z,9.40
2017-09-21T03:39:31.315Z,9.07
2017-09-21T03:42:02.226Z,9.23
2017-09-21T03:44:33.174Z,10.87
2017-09-21T03:47:05.009Z,14.47
2017-09-21T03:49:36.402Z,17.00
2017-09-21T03:52:07.293Z,15.90
2017-09-21T03:54:38.203Z,7.57
2017-09-21T03:57:09.387Z,5.90
2017-09-21T03:59:40.336Z,2.83
2017-09-21T04:02:11.772Z,2.97
2017-09-21T04:04:42.727Z,3.00
2017-09-21T04:07:13.774Z,3.60
2017-09-21T04:09:44.735Z,3.50
2017-09-21T04:12:15.692Z,4.23
2017-09-21T04:14:46.749Z,4.50
2017-09-21T04:17:18.743Z,3.50
2017-09-21T04:19:50.342Z,2.33
2017-09-21T04:22:21.579Z,3.77
2017-09-21T04:24:53.923Z,2.43
2017-09-21T04:27:24.896Z,2.50
2017-09-21T04:29:55.822Z,2.10
2017-09-21T04:32:27.840Z,3.33
2017-09-21T04:34:58.762Z,2.47
2017-09-21T04:37:30.715Z,2.60
2017-09-21T04:40:02.670Z,3.23
2017-09-21T04:42:33.724Z,2.80
2017-09-21T04:45:06.487Z,3.20
2017-09-21T04:47:37.440Z,2.90
2017-09-21T04:50:09.573Z,2.27
2017-09-21T04:52:40.520Z,1.97
2017-09-21T04:55:11.435Z,2.50
2017-09-21T04:57:42.408Z,3.00
2017-09-21T05:00:13.323Z,1.93
2017-09-21T05:02:45.038Z,2.30
2017-09-21T05:05:16.793Z,2.07
2017-09-21T05:07:47.739Z,2.70
2017-09-21T05:10:18.672Z,2.83
2017-09-21T05:12:49.612Z,1.90
2017-09-21T05:15:20.979Z,2.40
2017-09-21T05:17:51.915Z,2.87
2017-09-21T05:20:23.044Z,2.40
2017-09-21T05:22:53.979Z,3.20
2017-09-21T05:25:25.221Z,3.03
2017-09-21T05:27:56.168Z,3.40
2017-09-21T05:30:27.094Z,2.87
2017-09-21T05:33:00.082Z,3.27
2017-09-21T05:35:31.027Z,2.77
2017-09-21T05:38:01.949Z,2.47
2017-09-21T05:40:33.646Z,3.37
2017-09-21T05:43:04.616Z,3.10
2017-09-21T05:45:35.981Z,2.80
2017-09-21T05:48:07.708Z,3.00
2017-09-21T05:50:39.120Z,2.73
2017-09-21T05:53:10.050Z,3.40
2017-09-21T05:55:40.971Z,3.00
2017-09-21T05:58:12.670Z,3.37
2017-09-21T06:00:43.586Z,3.97
2017-09-21T06:03:15.684Z,2.27
2017-09-21T06:05:46.597Z,3.40
2017-09-21T06:08:17.574Z,3.20
2017-09-21T06:10:48.572Z,3.10
2017-09-21T06:13:19.510Z,2.70
2017-09-21T06:15:51.604Z,2.80
2017-09-21T06:18:22.581Z,3.00
2017-09-21T06:20:54.417Z,2.67
2017-09-21T06:23:25.375Z,3.00
2017-09-21T06:25:56.313Z,3.27
2017-09-21T06:28:27.265Z,3.17
2017-09-21T06:30:58.955Z,3.20
2017-09-21T06:33:30.192Z,3.40
2017-09-21T06:36:01.135Z,3.20
2017-09-21T06:38:32.084Z,2.63
2017-09-21T06:41:03.102Z,2.50
2017-09-21T06:43:34.043Z,3.10
2017-09-21T06:46:05.391Z,3.23
2017-09-21T06:48:36.351Z,2.67
2017-09-21T06:51:07.622Z,3.20
2017-09-21T06:53:38.581Z,3.07
2017-09-21T06:56:09.519Z,2.50
2017-09-21T06:58:40.459Z,3.07
2017-09-21T07:01:11.375Z,4.30
2017-09-21T07:03:42.730Z,3.10
2017-09-21T07:06:13.839Z,2.53
2017-09-21T07:08:44.775Z,3.00
2017-09-21T07:11:15.718Z,3.00
2017-09-21T07:13:48.236Z,3.23
2017-09-21T07:16:19.665Z,3.23
2017-09-21T07:18:50.637Z,3.13
2017-09-21T07:21:22.838Z,3.80
2017-09-21T07:23:53.809Z,3.43
2017-09-21T07:26:25.691Z,3.13
2017-09-21T07:28:56.658Z,3.17
2017-09-21T07:31:28.379Z,4.30
2017-09-21T07:33:59.679Z,3.80
2017-09-21T07:36:30.632Z,4.00
2017-09-21T07:39:02.617Z,4.20
2017-09-21T07:41:33.569Z,4.23
2017-09-21T07:44:04.555Z,4.00
2017-09-21T07:46:36.619Z,3.73
2017-09-21T07:49:07.856Z,4.33
2017-09-21T07:51:39.857Z,3.90
2017-09-21T07:54:10.834Z,4.47
2017-09-21T07:56:41.782Z,4.20
2017-09-21T07:59:13.011Z,3.80
2017-09-21T08:01:43.952Z,4.30
2017-09-21T08:04:15.356Z,5.10
2017-09-21T08:06:46.296Z,5.00
2017-09-21T08:09:17.214Z,4.50
2017-09-21T08:11:48.164Z,4.03
2017-09-21T08:14:19.097Z,3.90
2017-09-21T08:16:50.445Z,4.10
2017-09-21T08:19:21.396Z,3.07
2017-09-21T08:21:52.369Z,3.10
2017-09-21T08:24:23.330Z,3.00
2017-09-21T08:26:55.046Z,3.80
2017-09-21T08:29:26.351Z,3.87
2017-09-21T08:31:58.021Z,4.00
2017-09-21T08:34:29.171Z,3.20
2017-09-21T08:37:00.090Z,3.53
2017-09-21T08:39:31.816Z,3.47
2017-09-21T08:42:03.050Z,3.50
2017-09-21T08:44:33.989Z,3.33
2017-09-21T08:47:12.554Z,4.00
2017-09-21T08:49:44.432Z,3.20
2017-09-21T08:52:15.355Z,3.43
2017-09-21T08:54:46.307Z,3.63
2017-09-21T08:57:17.260Z,3.70
2017-09-21T08:59:48.991Z,3.07
2017-09-21T09:02:19.955Z,3.33
2017-09-21T09:04:51.102Z,3.43
2017-09-21T09:07:22.078Z,3.97
2017-09-21T09:09:53.026Z,3.87
2017-09-21T09:12:25.079Z,4.03
2017-09-21T09:14:55.989Z,4.03
2017-09-21T09:17:27.303Z,3.53
2017-09-21T09:19:58.283Z,3.37
2017-09-21T09:22:29.199Z,3.60
2017-09-21T09:25:00.133Z,3.97
2017-09-21T09:27:31.091Z,4.50
2017-09-21T09:30:02.753Z,4.43
2017-09-21T09:32:33.686Z,4.43
2017-09-21T09:35:05.013Z,4.20
2017-09-21T09:37:35.972Z,3.87
2017-09-21T09:40:06.935Z,5.30
2017-09-21T09:42:37.875Z,4.47
2017-09-21T09:45:08.819Z,4.70
2017-09-21T09:47:40.984Z,4.80
2017-09-21T09:50:11.919Z,5.83
2017-09-21T09:52:42.862Z,4.80
2017-09-21T09:55:14.589Z,4.73
2017-09-21T09:57:45.542Z,5.17
2017-09-21T10:00:17.253Z,5.33
2017-09-21T10:02:48.196Z,5.00
2017-09-21T10:05:19.574Z,5.00
2017-09-21T10:07:51.293Z,4.87
2017-09-21T10:10:22.298Z,5.17
2017-09-21T10:12:54.306Z,4.63
2017-09-21T10:15:25.299Z,5.07
2017-09-21T10:17:56.611Z,6.37
2017-09-21T10:20:27.814Z,7.00
2017-09-21T10:22:59.748Z,6.93
2017-09-21T10:25:30.927Z,5.67
2017-09-21T10:28:02.174Z,5.33
2017-09-21T10:30:33.138Z,5.00
2017-09-21T10:33:04.098Z,4.90
2017-09-21T10:35:35.442Z,5.03
2017-09-21T10:38:06.384Z,4.90
2017-09-21T10:40:37.325Z,6.40
2017-09-21T10:43:08.292Z,5.53
2017-09-21T10:45:40.024Z,5.97
2017-09-21T10:48:11.430Z,7.20
2017-09-21T10:50:42.405Z,6.60
2017-09-21T10:53:13.343Z,4.50
2017-09-21T10:55:44.428Z,3.10
2017-09-21T10:58:16.140Z,2.60
2017-09-21T11:00:47.706Z,3.00
2017-09-21T11:03:18.632Z,2.73
2017-09-21T11:05:49.891Z,3.00
2017-09-21T11:08:20.833Z,2.20
2017-09-21T11:10:51.753Z,2.47
2017-09-21T11:13:22.718Z,3.13
2017-09-21T11:15:54.336Z,2.97
2017-09-21T11:18:26.539Z,2.67
2017-09-21T11:20:57.459Z,3.20
2017-09-21T11:23:29.116Z,2.70
2017-09-21T11:26:00.055Z,2.27
2017-09-21T11:28:30.992Z,2.70
2017-09-21T11:31:02.202Z,2.87
2017-09-21T11:33:33.154Z,2.90
2017-09-21T11:36:04.066Z,2.90
2017-09-21T11:38:34.974Z,2.73
2017-09-21T11:41:05.901Z,2.97
2017-09-21T11:43:36.830Z,3.13
2017-09-21T11:46:07.733Z,3.17
2017-09-21T11:48:38.929Z,4.03
2017-09-21T11:51:10.147Z,3.73
2017-09-21T11:53:41.228Z,2.53
2017-09-21T11:56:13.834Z,3.90
2017-09-21T11:58:44.778Z,3.10
2017-09-21T12:01:15.812Z,3.63
2017-09-21T12:03:46.726Z,3.37
2017-09-21T12:06:18.430Z,3.63
2017-09-21T12:08:49.355Z,3.90
2017-09-21T12:11:20.301Z,3.60
2017-09-21T12:13:51.623Z,4.23
2017-09-21T12:16:23.572Z,5.00
2017-09-21T12:18:55.820Z,4.83
2017-09-21T12:21:26.740Z,5.13
2017-09-21T12:23:57.671Z,4.80
2017-09-21T12:26:28.635Z,4.57
2017-09-21T12:28:59.567Z,4.60
2017-09-21T12:31:30.858Z,5.27
2017-09-21T12:34:01.815Z,5.20
2017-09-21T12:36:32.758Z,6.70
2017-09-21T12:39:03.670Z,6.20
2017-09-21T12:41:34.818Z,6.57
2017-09-21T12:44:06.062Z,6.17
2017-09-21T12:46:36.984Z,7.20
2017-09-21T12:49:08.962Z,6.93
2017-09-21T12:51:39.917Z,7.33
2017-09-21T12:54:10.874Z,7.80
2017-09-21T12:56:41.805Z,7.63
2017-09-21T12:59:12.749Z,7.47
2017-09-21T13:01:44.083Z,7.27
2017-09-21T13:04:15.016Z,6.80
2017-09-21T13:06:45.965Z,6.40
2017-09-21T13:09:16.894Z,6.83
2017-09-21T13:11:47.830Z,6.40
2017-09-21T13:14:19.167Z,6.83
2017-09-21T13:16:50.124Z,6.50
2017-09-21T13:19:21.510Z,7.70
2017-09-21T13:21:53.809Z,7.20
2017-09-21T13:24:25.758Z,8.20
2017-09-21T13:26:57.468Z,7.40
2017-09-21T13:29:28.402Z,7.70
2017-09-21T13:31:59.759Z,8.00
2017-09-21T13:34:30.668Z,9.00
2017-09-21T13:37:01.607Z,9.13
2017-09-21T13:39:33.441Z,2.70
2017-09-21T13:42:05.255Z,3.40
2017-09-21T13:44:36.558Z,2.57
2017-09-21T13:47:08.266Z,3.27
2017-09-21T13:49:39.419Z,2.73
2017-09-21T13:52:10.380Z,2.33
2017-09-21T13:54:42.832Z,2.00
2017-09-21T13:57:13.836Z,2.90
2017-09-21T13:59:44.765Z,4.13
2017-09-21T14:02:15.948Z,1.50
2017-09-21T14:04:46.859Z,2.50
2017-09-21T14:07:17.774Z,2.83
2017-09-21T14:09:49.460Z,3.97
2017-09-21T14:12:20.386Z,3.63
2017-09-21T14:14:51.666Z,3.23
2017-09-21T14:17:22.602Z,3.43
2017-09-21T14:19:54.030Z,4.40
2017-09-21T14:22:25.950Z,4.00
2017-09-21T14:24:57.621Z,4.60
2017-09-21T14:27:28.607Z,3.77
2017-09-21T14:29:59.531Z,3.83
2017-09-21T14:32:31.102Z,3.90
2017-09-21T14:35:02.018Z,3.90
2017-09-21T14:37:32.954Z,3.70
2017-09-21T14:40:03.874Z,2.50
2017-09-21T14:42:34.829Z,3.00
2017-09-21T14:45:06.920Z,3.73
2017-09-21T14:47:37.862Z,4.07
2017-09-21T14:50:09.158Z,4.23
2017-09-21T14:52:40.082Z,3.70
2017-09-21T14:55:11.776Z,3.17
2017-09-21T14:57:42.734Z,3.70
2017-09-21T15:00:13.666Z,5.80
2017-09-21T15:02:47.791Z,4.43
2017-09-21T15:05:18.808Z,3.60
2017-09-21T15:07:49.738Z,4.87
2017-09-21T15:10:20.673Z,4.30
2017-09-21T15:12:51.612Z,3.83
2017-09-21T15:15:24.003Z,4.53
2017-09-21T15:17:54.980Z,5.97
2017-09-21T15:20:26.366Z,6.00
2017-09-21T15:22:57.370Z,4.30
2017-09-21T15:25:28.290Z,5.40
2017-09-21T15:27:59.236Z,5.00
2017-09-21T15:30:30.174Z,5.00
2017-09-21T15:33:01.589Z,5.37
2017-09-21T15:35:32.529Z,6.20
2017-09-21T15:38:04.205Z,6.70
2017-09-21T15:40:35.145Z,6.50
2017-09-21T15:43:06.078Z,7.47
2017-09-21T15:45:37.546Z,7.67
2017-09-21T15:48:08.442Z,7.40
2017-09-21T15:50:39.762Z,7.50
2017-09-21T15:53:11.445Z,8.10
2017-09-21T15:55:42.379Z,7.90
2017-09-21T15:58:13.351Z,7.23
2017-09-21T16:00:44.262Z,7.57
2017-09-21T16:03:15.701Z,6.47
2017-09-21T16:05:46.638Z,6.43
2017-09-21T16:08:17.588Z,7.37
2017-09-21T16:10:48.688Z,6.30
2017-09-21T16:13:20.651Z,5.47
2017-09-21T16:15:52.904Z,6.60
2017-09-21T16:18:24.023Z,6.73
2017-09-21T16:20:55.291Z,5.33
2017-09-21T16:23:26.236Z,6.37
2017-09-21T16:25:57.171Z,5.87
2017-09-21T16:28:28.072Z,7.63
2017-09-21T16:30:59.002Z,6.27
2017-09-21T16:33:30.260Z,6.07
2017-09-21T16:36:01.410Z,5.47
2017-09-21T16:38:32.647Z,6.63
2017-09-21T16:41:03.822Z,5.63
2017-09-21T16:43:35.041Z,5.37
2017-09-21T16:46:06.571Z,5.40
2017-09-21T16:48:37.513Z,5.67
2017-09-21T16:51:08.450Z,6.40
2017-09-21T16:53:39.379Z,5.97
2017-09-21T16:56:10.551Z,6.83
2017-09-21T16:58:41.522Z,5.80
2017-09-21T17:01:12.567Z,6.90
2017-09-21T17:03:44.014Z,6.50
2017-09-21T17:06:14.962Z,8.17
2017-09-21T17:08:45.982Z,6.33
2017-09-21T17:11:16.882Z,7.30
2017-09-21T17:13:47.881Z,7.73
2017-09-21T17:16:20.304Z,8.70
2017-09-21T17:18:51.267Z,8.83
2017-09-21T17:21:22.187Z,10.07
2017-09-21T17:23:54.100Z,9.30
2017-09-21T17:26:25.782Z,8.50
2017-09-21T17:28:56.727Z,8.07
2017-09-21T17:31:27.664Z,7.53
2017-09-21T17:33:59.003Z,6.87
2017-09-21T17:36:29.926Z,7.23
2017-09-21T17:39:01.619Z,6.03
2017-09-21T17:41:32.543Z,8.37
2017-09-21T17:44:03.507Z,9.27
2017-09-21T17:46:34.834Z,9.47
2017-09-21T17:49:05.768Z,6.70
2017-09-21T17:51:36.682Z,4.77
2017-09-21T17:54:08.386Z,2.90
2017-09-21T17:56:39.312Z,2.73
2017-09-21T17:59:10.270Z,2.67
2017-09-21T18:01:42.240Z,2.40
2017-09-21T18:04:13.701Z,3.20
2017-09-21T18:06:44.626Z,3.10
2017-09-21T18:09:15.551Z,3.70
2017-09-21T18:11:46.486Z,2.70
2017-09-21T18:14:17.421Z,4.43
2017-09-21T18:16:48.874Z,4.10
2017-09-21T18:19:19.811Z,4.73
2017-09-21T18:21:50.757Z,3.40
2017-09-21T18:24:21.727Z,4.47
2017-09-21T18:26:53.573Z,4.40
2017-09-21T18:29:25.700Z,4.03
2017-09-21T18:31:56.945Z,4.57
2017-09-21T18:34:29.103Z,3.47
2017-09-21T18:36:59.980Z,3.53
2017-09-21T18:39:30.943Z,4.53
2017-09-21T18:42:01.845Z,3.60
2017-09-21T18:44:32.784Z,3.73
2017-09-21T18:47:04.059Z,4.03
2017-09-21T18:49:34.982Z,3.90
2017-09-21T18:52:05.879Z,4.30
2017-09-21T18:54:36.791Z,4.47
2017-09-21T18:57:08.510Z,3.80
2017-09-21T18:59:39.805Z,4.63
2017-09-21T19:02:11.581Z,3.83
2017-09-21T19:04:42.910Z,4.03
2017-09-21T19:07:14.636Z,3.83
2017-09-21T19:09:45.694Z,4.10
2017-09-21T19:12:17.366Z,3.43
2017-09-21T19:14:48.347Z,4.10
2017-09-21T19:17:19.480Z,4.33
2017-09-21T19:19:50.423Z,3.60
2017-09-21T19:22:21.348Z,4.10
2017-09-21T19:24:52.259Z,4.80
2017-09-21T19:27:23.267Z,4.47
2017-09-21T19:29:54.474Z,3.90
2017-09-21T19:32:25.419Z,3.43
2017-09-21T19:34:57.460Z,3.17
2017-09-21T19:37:28.377Z,3.87
2017-09-21T19:40:00.073Z,2.70
2017-09-21T19:42:30.979Z,3.60
2017-09-21T19:45:02.637Z,3.00
2017-09-21T19:47:34.659Z,3.63
2017-09-21T19:50:05.582Z,2.83
2017-09-21T19:52:36.492Z,4.23
2017-09-21T19:55:07.442Z,3.60
2017-09-21T19:57:38.339Z,3.17
2017-09-21T20:00:10.242Z,3.40
2017-09-21T20:02:41.162Z,3.87
2017-09-21T20:05:12.436Z,3.90
2017-09-21T20:07:43.351Z,3.83
2017-09-21T20:10:14.271Z,4.57
2017-09-21T20:12:45.930Z,3.70
2017-09-21T20:15:17.657Z,4.50
2017-09-21T20:17:48.927Z,4.60
2017-09-21T20:20:20.594Z,4.53
2017-09-21T20:22:51.583Z,4.10
2017-09-21T20:25:22.602Z,4.37
2017-09-21T20:27:53.503Z,4.53
2017-09-21T20:30:24.516Z,4.10
2017-09-21T20:32:55.996Z,4.13
2017-09-21T20:35:28.065Z,3.47
2017-09-21T20:37:59.744Z,3.63
2017-09-21T20:40:30.655Z,4.23
2017-09-21T20:43:02.318Z,3.73
2017-09-21T20:45:33.219Z,3.87
2017-09-21T20:48:04.595Z,3.83
2017-09-21T20:50:36.272Z,4.17
2017-09-21T20:53:07.155Z,4.40
2017-09-21T20:55:38.086Z,4.83
2017-09-21T20:58:08.985Z,4.80
2017-09-21T21:00:40.931Z,4.90
2017-09-21T21:03:12.607Z,5.77
2017-09-21T21:05:43.820Z,5.33
2017-09-21T21:08:15.518Z,5.20
2017-09-21T21:10:46.443Z,4.77
2017-09-21T21:13:17.382Z,4.10
2017-09-21T21:15:48.284Z,4.97
2017-09-21T21:18:20.371Z,4.83
2017-09-21T21:20:51.316Z,5.03
2017-09-21T21:23:22.243Z,5.43
2017-09-21T21:25:53.958Z,4.87
2017-09-21T21:28:24.877Z,4.53
2017-09-21T21:30:56.234Z,5.80
2017-09-21T21:33:27.388Z,4.80
2017-09-21T21:35:58.541Z,5.40
2017-09-21T21:38:29.714Z,5.43
2017-09-21T21:41:01.474Z,4.70
2017-09-21T21:43:33.151Z,5.60
2017-09-21T21:46:04.077Z,5.33
2017-09-21T21:48:36.034Z,5.40
2017-09-21T21:51:07.007Z,5.80
2017-09-21T21:53:37.906Z,5.20
2017-09-21T21:56:09.584Z,5.93
2017-09-21T21:58:40.720Z,5.57
2017-09-21T22:01:12.082Z,5.50
2017-09-21T22:03:43.002Z,5.20
2017-09-21T22:06:13.942Z,5.47
2017-09-21T22:08:44.862Z,5.60
2017-09-21T22:11:16.518Z,6.40
2017-09-21T22:13:48.195Z,5.60
2017-09-21T22:16:19.123Z,6.60
2017-09-21T22:18:50.469Z,6.30
2017-09-21T22:21:22.178Z,5.93
2017-09-21T22:23:53.131Z,7.13
2017-09-21T22:26:24.049Z,6.60
2017-09-21T22:28:55.152Z,6.60
2017-09-21T22:31:26.295Z,6.40
2017-09-21T22:33:57.204Z,7.43
2017-09-21T22:36:29.166Z,6.90
2017-09-21T22:39:00.091Z,7.23
2017-09-21T22:41:31.010Z,7.00
2017-09-21T22:44:01.913Z,7.10
2017-09-21T22:46:32.835Z,7.50
2017-09-21T22:49:04.898Z,8.37
2017-09-21T22:51:36.612Z,7.50
2017-09-21T22:54:07.517Z,7.43
2017-09-21T22:56:38.839Z,6.80
2017-09-21T22:59:10.530Z,6.87
2017-09-21T23:01:41.669Z,6.27
2017-09-21T23:04:12.593Z,8.07
2017-09-21T23:06:43.519Z,6.30
2017-09-21T23:09:15.200Z,6.73
2017-09-21T23:11:46.134Z,7.10
2017-09-21T23:14:17.079Z,6.13
2017-09-21T23:16:48.024Z,6.70
2017-09-21T23:19:19.347Z,6.27
2017-09-21T23:21:50.263Z,5.20
2017-09-21T23:24:21.958Z,4.53
2017-09-21T23:26:52.851Z,3.30
2017-09-21T23:29:24.587Z,3.70
2017-09-21T23:31:56.703Z,3.23
2017-09-21T23:34:27.610Z,3.60
2017-09-21T23:36:58.498Z,3.73
2017-09-21T23:39:29.439Z,4.20
2017-09-21T23:42:00.334Z,3.80
2017-09-21T23:44:32.421Z,4.27
2017-09-21T23:47:03.361Z,4.80
2017-09-21T23:49:34.611Z,5.43
2017-09-21T23:52:05.560Z,4.87
2017-09-21T23:54:37.099Z,4.30
2017-09-21T23:57:08.031Z,4.33
2017-09-21T23:59:38.943Z,5.13
